createdAt,value
2018-07-22T00:01:17.380Z,16.70
2018-07-22T00:03:49.439Z,16.80
2018-07-22T00:06:22.113Z,16.70
2018-07-22T00:08:53.918Z,16.60
2018-07-22T00:11:25.730Z,16.50
2018-07-22T00:13:57.569Z,16.60
2018-07-22T00:16:29.559Z,16.70
2018-07-22T00:19:01.295Z,16.60
2018-07-22T00:21:47.295Z,16.60
2018-07-22T00:24:18.965Z,16.60
2018-07-22T00:26:50.659Z,16.60
2018-07-22T00:29:22.319Z,16.70
2018-07-22T00:31:53.974Z,16.90
2018-07-22T00:34:25.566Z,16.60
2018-07-22T00:36:57.533Z,16.60
2018-07-22T00:39:29.423Z,16.60
2018-07-22T00:42:01.333Z,16.40
2018-07-22T00:44:33.127Z,16.30
2018-07-22T00:47:05.062Z,16.30
2018-07-22T00:49:36.967Z,16.30
2018-07-22T00:54:40.404Z,16.40
2018-07-22T00:57:12.394Z,16.40
2018-07-22T00:59:44.444Z,16.30
2018-07-22T01:02:16.545Z,16.40
2018-07-22T01:04:48.186Z,16.50
2018-07-22T01:07:19.842Z,16.60
2018-07-22T01:09:51.435Z,16.80
2018-07-22T01:12:23.171Z,16.70
2018-07-22T01:14:54.779Z,16.60
2018-07-22T01:17:26.444Z,16.40
2018-07-22T01:20:01.161Z,16.60
2018-07-22T01:22:32.790Z,16.60
2018-07-22T01:25:04.421Z,16.60
2018-07-22T01:27:36.026Z,16.70
2018-07-22T01:30:10.060Z,16.80
2018-07-22T01:32:41.619Z,16.90
2018-07-22T01:35:13.108Z,16.90
2018-07-22T01:37:44.658Z,16.80
2018-07-22T01:40:16.202Z,16.70
2018-07-22T01:42:47.810Z,16.70
2018-07-22T01:45:19.324Z,16.70
2018-07-22T01:47:50.899Z,16.60
2018-07-22T01:50:22.474Z,16.40
2018-07-22T01:52:54.037Z,16.60
2018-07-22T01:57:56.531Z,16.60
2018-07-22T02:00:28.102Z,16.50
2018-07-22T02:03:00.293Z,16.40
2018-07-22T02:05:32.667Z,16.20
2018-07-22T02:08:04.255Z,16.30
2018-07-22T02:10:35.798Z,16.50
2018-07-22T02:13:07.554Z,16.50
2018-07-22T02:15:39.097Z,16.50
2018-07-22T02:18:10.626Z,16.30
2018-07-22T02:23:13.392Z,16.30
2018-07-22T02:25:44.913Z,16.50
2018-07-22T02:28:16.419Z,16.30
2018-07-22T02:30:48.047Z,16.20
2018-07-22T02:33:19.594Z,16.20
2018-07-22T02:35:51.129Z,16.20
2018-07-22T02:38:23.038Z,16.10
2018-07-22T02:48:27.515Z,16.30
2018-07-22T02:50:59.058Z,16.30
2018-07-22T02:53:30.660Z,16.20
2018-07-22T02:56:02.180Z,16.20
2018-07-22T02:58:33.830Z,16.30
2018-07-22T03:06:07.326Z,16.40
2018-07-22T03:08:38.891Z,16.40
2018-07-22T03:11:10.410Z,16.50
2018-07-22T03:16:13.093Z,16.50
2018-07-22T03:18:44.667Z,16.70
2018-07-22T03:21:16.175Z,16.80
2018-07-22T03:23:47.862Z,16.50
2018-07-22T03:28:50.612Z,16.10
2018-07-22T03:31:22.309Z,16.10
2018-07-22T03:33:54.446Z,16.40
2018-07-22T03:38:57.088Z,16.50
2018-07-22T03:41:28.723Z,16.50
2018-07-22T03:44:00.394Z,16.50
2018-07-22T03:46:32.025Z,16.40
2018-07-22T03:49:03.651Z,16.50
2018-07-22T03:54:06.231Z,16.60
2018-07-22T03:56:40.784Z,16.70
2018-07-22T04:01:43.374Z,16.70
2018-07-22T04:04:15.060Z,16.40
2018-07-22T04:06:46.704Z,16.40
2018-07-22T04:09:18.294Z,16.30
2018-07-22T04:11:49.905Z,16.40
2018-07-22T04:14:21.614Z,16.20
2018-07-22T04:16:53.242Z,16.10
2018-07-22T04:19:24.886Z,16.10
2018-07-22T04:21:56.474Z,16.20
2018-07-22T04:24:28.292Z,16.40
2018-07-22T04:27:00.063Z,16.40
2018-07-22T04:29:31.764Z,16.60
2018-07-22T04:32:03.465Z,16.40
2018-07-22T04:34:35.212Z,16.30
2018-07-22T04:39:38.324Z,16.10
2018-07-22T04:44:40.995Z,16.10
2018-07-22T04:47:12.742Z,16.10
2018-07-22T04:49:44.563Z,16.10
2018-07-22T04:52:16.214Z,16.10
2018-07-22T04:54:47.943Z,16.20
2018-07-22T04:57:19.671Z,16.20
2018-07-22T04:59:51.367Z,16.30
2018-07-22T05:02:23.065Z,16.30
2018-07-22T05:04:54.802Z,16.40
2018-07-22T05:07:26.424Z,16.40
2018-07-22T05:09:58.203Z,16.40
2018-07-22T05:12:29.827Z,16.50
2018-07-22T05:15:01.543Z,16.30
2018-07-22T05:17:33.225Z,16.20
2018-07-22T05:22:35.983Z,16.40
2018-07-22T05:25:07.671Z,16.40
2018-07-22T05:27:39.305Z,16.40
2018-07-22T05:32:42.051Z,16.40
2018-07-22T05:35:13.670Z,16.40
2018-07-22T05:37:45.309Z,16.50
2018-07-22T05:40:17.127Z,16.40
2018-07-22T05:42:48.758Z,16.30
2018-07-22T05:45:20.458Z,16.40
2018-07-22T05:47:52.097Z,16.50
2018-07-22T05:50:23.855Z,16.50
2018-07-22T05:52:55.814Z,16.40
2018-07-22T05:55:27.614Z,16.50
2018-07-22T05:57:59.274Z,16.50
2018-07-22T06:03:02.923Z,16.60
2018-07-22T06:05:34.675Z,16.50
2018-07-22T06:08:06.573Z,16.50
2018-07-22T06:10:38.229Z,16.50
2018-07-22T06:13:10.086Z,16.50
2018-07-22T06:20:46.674Z,16.60
2018-07-22T06:25:51.279Z,16.80
2018-07-22T06:28:22.951Z,16.80
2018-07-22T06:30:54.733Z,16.90
2018-07-22T06:33:26.418Z,16.90
2018-07-22T06:35:58.178Z,16.90
2018-07-22T06:38:29.892Z,16.80
2018-07-22T06:41:01.663Z,16.90
2018-07-22T06:43:33.417Z,17.00
2018-07-22T06:46:05.208Z,17.10
2018-07-22T06:48:36.873Z,17.10
2018-07-22T06:53:39.906Z,17.30
2018-07-22T06:56:11.727Z,17.10
2018-07-22T06:58:43.415Z,16.90
2018-07-22T07:03:46.154Z,17.00
2018-07-22T07:06:17.948Z,17.10
2018-07-22T07:08:49.663Z,17.20
2018-07-22T07:11:21.650Z,17.30
2018-07-22T07:18:59.938Z,17.40
2018-07-22T07:24:02.727Z,17.40
2018-07-22T07:26:34.642Z,17.30
2018-07-22T07:29:06.469Z,17.10
2018-07-22T07:34:09.658Z,16.90
2018-07-22T07:39:13.882Z,17.20
2018-07-22T07:41:45.616Z,17.40
2018-07-22T07:49:20.138Z,17.30
2018-07-22T07:51:51.826Z,17.20
2018-07-22T07:54:23.549Z,17.30
2018-07-22T07:56:55.246Z,17.30
2018-07-22T07:59:26.940Z,17.50
2018-07-22T08:01:58.694Z,17.60
2018-07-22T08:07:01.735Z,17.60
2018-07-22T08:09:33.370Z,17.80
2018-07-22T08:12:05.715Z,17.90
2018-07-22T08:14:37.427Z,17.80
2018-07-22T08:17:09.261Z,17.70
2018-07-22T08:19:41.943Z,17.70
2018-07-22T08:22:13.719Z,17.60
2018-07-22T08:24:45.333Z,17.60
2018-07-22T08:27:17.059Z,17.60
2018-07-22T08:29:48.826Z,17.50
2018-07-22T08:32:20.663Z,17.50
2018-07-22T08:34:52.475Z,17.60
2018-07-22T08:39:55.190Z,17.70
2018-07-22T08:42:26.967Z,17.80
2018-07-22T08:44:58.690Z,17.80
2018-07-22T08:47:30.480Z,17.90
2018-07-22T08:50:02.190Z,17.80
2018-07-22T08:55:05.464Z,17.80
2018-07-22T09:00:08.724Z,18.20
2018-07-22T09:05:11.706Z,18.30
2018-07-22T09:07:43.589Z,18.30
2018-07-22T09:10:15.286Z,18.30
2018-07-22T09:12:47.747Z,18.00
2018-07-22T09:15:19.586Z,18.00
2018-07-22T09:17:52.089Z,18.30
2018-07-22T09:20:23.838Z,18.30
2018-07-22T09:22:55.599Z,18.20
2018-07-22T09:25:27.824Z,18.30
2018-07-22T09:27:59.541Z,18.10
2018-07-22T09:30:31.125Z,18.30
2018-07-22T09:33:02.958Z,18.40
2018-07-22T09:35:34.599Z,18.40
2018-07-22T09:38:06.974Z,18.40
2018-07-22T09:40:38.627Z,18.30
2018-07-22T09:43:10.386Z,18.20
2018-07-22T09:45:42.843Z,18.20
2018-07-22T09:48:14.664Z,18.30
2018-07-22T09:50:46.294Z,18.20
2018-07-22T09:53:18.418Z,18.30
2018-07-22T09:55:50.799Z,18.50
2018-07-22T09:58:22.520Z,18.60
2018-07-22T10:00:57.671Z,18.80
2018-07-22T10:03:31.036Z,18.70
2018-07-22T10:08:33.798Z,18.40
2018-07-22T10:11:05.533Z,18.40
2018-07-22T10:13:37.165Z,18.20
2018-07-22T10:18:39.805Z,18.40
2018-07-22T10:21:11.508Z,18.70
2018-07-22T10:23:43.223Z,18.60
2018-07-22T10:26:14.936Z,18.70
2018-07-22T10:31:19.941Z,18.60
2018-07-22T10:36:22.927Z,18.40
2018-07-22T10:38:55.233Z,18.50
2018-07-22T10:41:26.868Z,18.40
2018-07-22T10:43:58.511Z,18.60
2018-07-22T10:46:30.666Z,18.50
2018-07-22T10:49:02.355Z,18.60
2018-07-22T10:51:34.996Z,18.80
2018-07-22T10:54:07.207Z,18.70
2018-07-22T10:56:38.954Z,18.70
2018-07-22T10:59:11.865Z,18.70
2018-07-22T11:01:44.060Z,18.60
2018-07-22T11:04:15.887Z,18.60
2018-07-22T11:06:47.610Z,18.60
2018-07-22T11:09:19.826Z,18.80
2018-07-22T11:16:54.003Z,18.70
2018-07-22T11:19:26.780Z,18.70
2018-07-22T11:21:58.560Z,18.70
2018-07-22T11:24:30.331Z,18.70
2018-07-22T11:27:02.166Z,18.60
2018-07-22T11:29:33.940Z,18.60
2018-07-22T11:32:06.160Z,18.50
2018-07-22T11:34:37.979Z,18.60
2018-07-22T11:37:10.812Z,18.60
2018-07-22T11:39:42.582Z,18.70
2018-07-22T11:42:14.421Z,18.70
2018-07-22T11:44:46.173Z,18.70
2018-07-22T11:47:17.872Z,18.50
2018-07-22T11:49:49.671Z,18.40
2018-07-22T11:52:21.410Z,18.50
2018-07-22T11:54:53.206Z,18.60
2018-07-22T11:57:25.368Z,18.60
2018-07-22T11:59:57.194Z,18.50
2018-07-22T12:02:28.833Z,18.50
2018-07-22T12:05:00.686Z,18.50
2018-07-22T12:07:32.500Z,18.60
2018-07-22T12:10:04.858Z,18.80
2018-07-22T12:12:36.659Z,18.90
2018-07-22T12:15:08.446Z,18.90
2018-07-22T12:17:40.191Z,18.80
2018-07-22T12:20:12.283Z,18.70
2018-07-22T12:22:44.957Z,18.70
2018-07-22T12:25:16.814Z,18.70
2018-07-22T12:27:48.659Z,18.90
2018-07-22T12:30:20.375Z,18.90
2018-07-22T12:35:23.222Z,18.90
2018-07-22T12:37:55.220Z,19.00
2018-07-22T12:40:27.244Z,19.00
2018-07-22T12:42:59.299Z,19.10
2018-07-22T12:45:32.018Z,19.10
2018-07-22T12:48:06.681Z,19.00
2018-07-22T12:50:38.539Z,19.00
2018-07-22T12:55:42.019Z,18.90
2018-07-22T12:58:13.880Z,18.90
2018-07-22T13:00:45.668Z,18.90
2018-07-22T13:03:18.413Z,18.90
2018-07-22T13:05:50.215Z,18.70
2018-07-22T13:08:22.058Z,18.60
2018-07-22T13:13:24.903Z,18.50
2018-07-22T13:15:56.720Z,18.60
2018-07-22T13:18:28.446Z,18.50
2018-07-22T13:21:00.232Z,18.40
2018-07-22T13:23:31.884Z,18.40
2018-07-22T13:26:03.615Z,18.40
2018-07-22T13:31:07.203Z,18.10
2018-07-22T13:33:39.025Z,17.90
2018-07-22T13:36:10.825Z,17.80
2018-07-22T13:41:13.744Z,17.70
2018-07-22T13:43:45.651Z,17.70
2018-07-22T13:46:18.067Z,17.60
2018-07-22T13:48:49.851Z,17.50
2018-07-22T13:51:22.284Z,17.60
2018-07-22T13:53:54.169Z,17.60
2018-07-22T13:56:25.991Z,17.80
2018-07-22T13:58:57.776Z,17.80
2018-07-22T14:01:29.787Z,17.70
2018-07-22T14:06:32.726Z,17.70
2018-07-22T14:09:06.154Z,17.70
2018-07-22T14:11:38.235Z,17.80
2018-07-22T14:14:10.708Z,17.90
2018-07-22T14:21:47.183Z,18.20
2018-07-22T14:24:19.046Z,18.20
2018-07-22T14:26:51.499Z,18.20
2018-07-22T14:29:23.598Z,18.20
2018-07-22T14:31:55.340Z,18.10
2018-07-22T14:34:27.006Z,18.40
2018-07-22T14:36:58.658Z,18.40
2018-07-22T14:39:30.685Z,18.30
2018-07-22T14:42:02.512Z,18.40
2018-07-22T14:44:34.202Z,18.50
2018-07-22T14:47:06.197Z,18.40
2018-07-22T14:49:39.898Z,18.40
2018-07-22T14:52:11.588Z,18.40
2018-07-22T14:54:43.826Z,18.50
2018-07-22T14:57:15.876Z,18.70
2018-07-22T14:59:47.585Z,18.60
2018-07-22T15:02:19.278Z,18.80
2018-07-22T15:04:51.413Z,18.60
2018-07-22T15:07:23.120Z,18.80
2018-07-22T15:09:55.502Z,18.60
2018-07-22T15:12:27.661Z,18.70
2018-07-22T15:14:59.432Z,18.60
2018-07-22T15:17:31.744Z,18.50
2018-07-22T15:20:03.401Z,18.50
2018-07-22T15:22:35.127Z,18.50
2018-07-22T15:25:07.020Z,18.50
2018-07-22T15:27:38.670Z,18.60
2018-07-22T15:30:10.270Z,18.60
2018-07-22T15:32:42.166Z,18.80
2018-07-22T15:35:13.892Z,18.70
2018-07-22T15:37:47.865Z,18.60
2018-07-22T15:40:20.050Z,18.50
2018-07-22T15:42:52.000Z,18.70
2018-07-22T15:45:25.325Z,18.70
2018-07-22T15:47:57.051Z,18.60
2018-07-22T15:50:28.915Z,18.50
2018-07-22T15:53:01.265Z,18.50
2018-07-22T15:55:33.354Z,18.60
2018-07-22T15:58:04.983Z,18.60
2018-07-22T16:00:36.574Z,18.50
2018-07-22T16:03:08.481Z,18.60
2018-07-22T16:08:12.259Z,18.50
2018-07-22T16:10:43.954Z,18.50
2018-07-22T16:13:15.728Z,18.40
2018-07-22T16:15:47.431Z,18.50
2018-07-22T16:18:19.646Z,18.30
2018-07-22T16:20:51.319Z,18.40
2018-07-22T16:23:23.134Z,18.30
2018-07-22T16:25:55.150Z,18.20
2018-07-22T16:28:26.942Z,18.10
2018-07-22T16:30:58.640Z,18.10
2018-07-22T16:33:30.362Z,18.00
2018-07-22T16:38:33.347Z,18.00
2018-07-22T16:41:05.451Z,18.20
2018-07-22T16:43:37.696Z,18.20
2018-07-22T16:46:09.393Z,18.10
2018-07-22T16:48:41.152Z,17.90
2018-07-22T16:51:12.742Z,17.90
2018-07-22T16:53:44.484Z,17.70
2018-07-22T16:56:16.179Z,17.60
2018-07-22T17:01:19.187Z,17.60
2018-07-22T17:03:51.185Z,17.60
2018-07-22T17:08:54.036Z,17.50
2018-07-22T17:11:25.731Z,17.50
2018-07-22T17:13:57.439Z,17.40
2018-07-22T17:16:29.859Z,17.50
2018-07-22T17:21:33.172Z,17.50
2018-07-22T17:24:04.879Z,17.50
2018-07-22T17:26:36.618Z,17.70
2018-07-22T17:29:09.001Z,17.60
2018-07-22T17:31:41.013Z,17.60
2018-07-22T17:36:47.504Z,17.40
2018-07-22T17:39:19.159Z,17.30
2018-07-22T17:44:23.639Z,17.20
2018-07-22T17:46:55.392Z,17.20
2018-07-22T17:49:27.003Z,17.10
2018-07-22T17:51:58.738Z,17.20
2018-07-22T17:54:30.458Z,17.10
2018-07-22T17:57:03.129Z,17.10
2018-07-22T17:59:34.820Z,17.20
2018-07-22T18:02:06.519Z,17.20
2018-07-22T18:04:38.213Z,17.00
2018-07-22T18:07:09.892Z,17.00
2018-07-22T18:09:42.655Z,17.00
2018-07-22T18:12:14.879Z,17.00
2018-07-22T18:17:17.643Z,17.10
2018-07-22T18:19:49.389Z,17.10
2018-07-22T18:22:20.999Z,16.90
2018-07-22T18:24:52.760Z,16.90
2018-07-22T18:27:25.045Z,16.90
2018-07-22T18:29:56.735Z,16.90
2018-07-22T18:32:28.555Z,16.90
2018-07-22T18:35:00.759Z,16.90
2018-07-22T18:37:32.446Z,17.00
2018-07-22T18:42:35.230Z,16.90
2018-07-22T18:45:07.158Z,16.60
2018-07-22T18:50:10.844Z,16.50
2018-07-22T18:52:42.462Z,16.60
2018-07-22T18:57:45.421Z,16.60
2018-07-22T19:00:17.239Z,16.70
2018-07-22T19:02:48.854Z,16.80
2018-07-22T19:05:21.936Z,16.90
2018-07-22T19:07:53.521Z,17.00
2018-07-22T19:10:26.179Z,17.20
2018-07-22T19:18:01.794Z,16.40
2018-07-22T19:20:34.531Z,16.60
2018-07-22T19:23:06.251Z,16.90
2018-07-22T19:25:39.066Z,16.80
2018-07-22T19:28:13.703Z,16.80
2018-07-22T19:30:46.396Z,16.70
2018-07-22T19:33:19.219Z,16.70
2018-07-22T19:35:51.005Z,16.80
2018-07-22T19:38:23.546Z,16.90
2018-07-22T19:40:55.994Z,17.20
2018-07-22T19:43:27.872Z,17.10
2018-07-22T19:45:59.995Z,17.00
2018-07-22T19:48:34.837Z,17.00
2018-07-22T19:51:06.537Z,16.80
2018-07-22T19:53:38.717Z,16.70
2018-07-22T19:56:11.189Z,16.70
2018-07-22T19:58:43.298Z,16.90
2018-07-22T20:01:15.058Z,16.90
2018-07-22T20:06:18.059Z,16.70
2018-07-22T20:08:50.872Z,16.80
2018-07-22T20:11:24.078Z,16.80
2018-07-22T20:13:55.798Z,16.60
2018-07-22T20:16:27.863Z,16.50
2018-07-22T20:18:59.656Z,16.50
2018-07-22T20:21:32.423Z,16.50
2018-07-22T20:26:36.005Z,16.60
2018-07-22T20:31:39.853Z,16.80
2018-07-22T20:36:42.776Z,16.90
2018-07-22T20:39:14.525Z,16.80
2018-07-22T20:41:46.313Z,16.80
2018-07-22T20:44:19.188Z,17.00
2018-07-22T20:46:51.501Z,17.00
2018-07-22T20:49:24.041Z,16.90
2018-07-22T20:51:55.905Z,16.80
2018-07-22T20:54:27.627Z,16.80
2018-07-22T20:56:59.442Z,16.80
2018-07-22T20:59:31.211Z,16.70
2018-07-22T21:02:02.963Z,16.80
2018-07-22T21:07:06.247Z,16.70
2018-07-22T21:09:38.005Z,16.80
2018-07-22T21:12:54.344Z,16.80
2018-07-22T21:15:26.233Z,16.80
2018-07-22T21:17:58.198Z,16.80
2018-07-22T21:20:29.916Z,16.70
2018-07-22T21:25:33.551Z,16.80
2018-07-22T21:30:37.220Z,16.90
2018-07-22T21:33:09.424Z,16.70
2018-07-22T21:35:41.589Z,16.60
2018-07-22T21:38:13.799Z,16.50
2018-07-22T21:40:45.823Z,16.60
2018-07-22T21:43:17.907Z,16.60
2018-07-22T21:45:50.036Z,16.60
2018-07-22T21:50:53.460Z,16.60
2018-07-22T21:53:25.260Z,16.60
2018-07-22T21:55:57.763Z,16.60
2018-07-22T21:58:29.548Z,16.70
2018-07-22T22:01:02.046Z,16.60
2018-07-22T22:03:33.863Z,16.60
2018-07-22T22:06:05.731Z,16.40
2018-07-22T22:08:37.422Z,16.20
2018-07-22T22:13:40.171Z,16.40
2018-07-22T22:16:11.843Z,16.40
2018-07-22T22:18:43.545Z,16.40
2018-07-22T22:23:46.580Z,16.40
2018-07-22T22:26:18.263Z,16.30
2018-07-22T22:31:21.035Z,16.20
2018-07-22T22:33:52.762Z,16.30
2018-07-22T22:36:24.498Z,16.40
2018-07-22T22:38:56.185Z,16.30
2018-07-22T22:41:27.877Z,16.50
2018-07-22T22:49:01.728Z,16.10
2018-07-22T22:51:33.487Z,16.20
2018-07-22T22:54:05.243Z,16.20
2018-07-22T22:56:36.854Z,16.30
2018-07-22T22:59:23.677Z,16.40
2018-07-22T23:01:55.325Z,16.50
2018-07-22T23:04:27.030Z,16.50
2018-07-22T23:09:29.706Z,16.50
2018-07-22T23:12:01.363Z,16.40
2018-07-22T23:14:32.922Z,16.30
2018-07-22T23:17:04.698Z,16.30
2018-07-22T23:19:36.450Z,16.30
2018-07-22T23:22:08.163Z,16.30
2018-07-22T23:24:39.879Z,16.30
2018-07-22T23:29:42.722Z,16.40
2018-07-22T23:34:45.865Z,16.30
2018-07-22T23:37:18.442Z,16.20
2018-07-22T23:42:21.169Z,16.30
2018-07-22T23:44:52.852Z,16.20
2018-07-22T23:47:24.444Z,16.10
2018-07-22T23:49:56.142Z,16.20
2018-07-22T23:54:59.102Z,16.30
